sensor_id;sensor_type;location;lat;lon;timestamp;pressure;altitude;pressure_sealevel;temperature;humidity
35655;BME280;21773;50.010;19.972;2022-09-13T00:00:14;98631.25;;;20.60;46.45
35655;BME280;21773;50.010;19.972;2022-09-13T00:03:19;98628.31;;;20.56;46.26
35655;BME280;21773;50.010;19.972;2022-09-13T00:06:23;98633.25;;;20.54;46.38
35655;BME280;21773;50.010;19.972;2022-09-13T00:09:27;98626.72;;;20.50;46.07
35655;BME280;21773;50.010;19.972;2022-09-13T00:12:30;98622.94;;;20.46;46.50
35655;BME280;21773;50.010;19.972;2022-09-13T00:15:34;98623.28;;;20.40;46.60
35655;BME280;21773;50.010;19.972;2022-09-13T00:18:38;98614.31;;;20.34;46.67
35655;BME280;21773;50.010;19.972;2022-09-13T00:21:42;98608.88;;;20.29;46.58
35655;BME280;21773;50.010;19.972;2022-09-13T00:24:46;98622.06;;;20.27;46.81
35655;BME280;21773;50.010;19.972;2022-09-13T00:27:49;98617.13;;;20.24;46.99
35655;BME280;21773;50.010;19.972;2022-09-13T00:30:52;98617.72;;;20.21;46.81
35655;BME280;21773;50.010;19.972;2022-09-13T00:33:59;98607.72;;;20.11;47.05
35655;BME280;21773;50.010;19.972;2022-09-13T00:37:04;98602.25;;;20.11;46.78
35655;BME280;21773;50.010;19.972;2022-09-13T00:40:08;98610.41;;;20.16;47.05
35655;BME280;21773;50.010;19.972;2022-09-13T00:43:16;98609.03;;;20.14;47.35
35655;BME280;21773;50.010;19.972;2022-09-13T00:46:24;98606.91;;;20.11;47.32
35655;BME280;21773;50.010;19.972;2022-09-13T00:49:34;98585.97;;;19.96;47.42
35655;BME280;21773;50.010;19.972;2022-09-13T00:52:41;98598.16;;;20.09;47.27
35655;BME280;21773;50.010;19.972;2022-09-13T00:55:50;98606.34;;;20.09;47.82
35655;BME280;21773;50.010;19.972;2022-09-13T00:58:59;98596.00;;;20.06;47.35
35655;BME280;21773;50.010;19.972;2022-09-13T01:02:03;98605.84;;;20.07;47.54
35655;BME280;21773;50.010;19.972;2022-09-13T01:05:08;98600.38;;;20.07;47.81
35655;BME280;21773;50.010;19.972;2022-09-13T01:08:13;98603.41;;;20.05;47.51
35655;BME280;21773;50.010;19.972;2022-09-13T01:11:26;98590.00;;;20.04;47.58
35655;BME280;21773;50.010;19.972;2022-09-13T01:14:31;98581.06;;;19.98;47.81
35655;BME280;21773;50.010;19.972;2022-09-13T01:17:36;98583.72;;;20.03;47.52
35655;BME280;21773;50.010;19.972;2022-09-13T01:20:53;98591.94;;;20.03;47.25
35655;BME280;21773;50.010;19.972;2022-09-13T01:24:39;98585.94;;;20.01;47.76
35655;BME280;21773;50.010;19.972;2022-09-13T01:28:00;98593.31;;;20.01;47.75
35655;BME280;21773;50.010;19.972;2022-09-13T01:31:14;98594.41;;;20.00;47.73
35655;BME280;21773;50.010;19.972;2022-09-13T01:34:28;98591.69;;;20.00;48.19
35655;BME280;21773;50.010;19.972;2022-09-13T01:37:46;98587.34;;;19.99;48.06
35655;BME280;21773;50.010;19.972;2022-09-13T01:41:03;98605.38;;;20.00;47.79
35655;BME280;21773;50.010;19.972;2022-09-13T01:44:18;98602.13;;;19.98;47.89
35655;BME280;21773;50.010;19.972;2022-09-13T01:47:31;98602.13;;;19.98;47.73
35655;BME280;21773;50.010;19.972;2022-09-13T01:50:40;98607.59;;;19.98;47.80
35655;BME280;21773;50.010;19.972;2022-09-13T01:53:52;98604.31;;;19.96;47.79
35655;BME280;21773;50.010;19.972;2022-09-13T01:57:04;98599.66;;;19.96;47.84
35655;BME280;21773;50.010;19.972;2022-09-13T02:00:12;98594.78;;;19.93;47.58
35655;BME280;21773;50.010;19.972;2022-09-13T02:03:20;98595.34;;;19.90;47.78
35655;BME280;21773;50.010;19.972;2022-09-13T02:06:29;98586.63;;;19.88;47.87
35655;BME280;21773;50.010;19.972;2022-09-13T02:09:38;98587.72;;;19.87;47.52
35655;BME280;21773;50.010;19.972;2022-09-13T02:12:46;98574.97;;;19.77;47.60
35655;BME280;21773;50.010;19.972;2022-09-13T02:15:54;98584.75;;;19.83;47.67
35655;BME280;21773;50.010;19.972;2022-09-13T02:19:06;98573.56;;;19.80;47.85
35655;BME280;21773;50.010;19.972;2022-09-13T02:22:17;98568.41;;;19.78;47.81
35655;BME280;21773;50.010;19.972;2022-09-13T02:25:24;98567.56;;;19.78;47.95
35655;BME280;21773;50.010;19.972;2022-09-13T02:28:33;98567.84;;;19.76;47.76
35655;BME280;21773;50.010;19.972;2022-09-13T02:31:41;98565.13;;;19.76;47.69
35655;BME280;21773;50.010;19.972;2022-09-13T02:34:50;98565.13;;;19.76;47.52
35655;BME280;21773;50.010;19.972;2022-09-13T02:37:59;98567.03;;;19.76;47.69
35655;BME280;21773;50.010;19.972;2022-09-13T02:41:09;98566.22;;;19.75;47.67
35655;BME280;21773;50.010;19.972;2022-09-13T02:44:17;98558.00;;;19.75;47.82
35655;BME280;21773;50.010;19.972;2022-09-13T02:47:33;98562.66;;;19.75;47.72
35655;BME280;21773;50.010;19.972;2022-09-13T02:50:46;98564.59;;;19.74;47.89
35655;BME280;21773;50.010;19.972;2022-09-13T02:53:59;98561.34;;;19.72;48.04
35655;BME280;21773;50.010;19.972;2022-09-13T02:57:11;98562.44;;;19.71;47.98
35655;BME280;21773;50.010;19.972;2022-09-13T03:00:16;98558.88;;;19.71;47.88
35655;BME280;21773;50.010;19.972;2022-09-13T03:03:20;98552.09;;;19.68;47.93
35655;BME280;21773;50.010;19.972;2022-09-13T03:06:27;98549.63;;;19.67;47.66
35655;BME280;21773;50.010;19.972;2022-09-13T03:09:30;98553.19;;;19.67;47.70
35655;BME280;21773;50.010;19.972;2022-09-13T03:16:23;98541.72;;;19.65;47.87
35655;BME280;21773;50.010;19.972;2022-09-13T03:19:40;98533.22;;;19.67;47.86
35655;BME280;21773;50.010;19.972;2022-09-13T03:23:24;98532.16;;;19.63;47.79
35655;BME280;21773;50.010;19.972;2022-09-13T03:26:45;98526.16;;;19.61;47.68
35655;BME280;21773;50.010;19.972;2022-09-13T03:29:58;98530.53;;;19.62;47.74
35655;BME280;21773;50.010;19.972;2022-09-13T03:33:10;98519.59;;;19.62;47.25
35655;BME280;21773;50.010;19.972;2022-09-13T03:36:20;98514.94;;;19.62;47.43
35655;BME280;21773;50.010;19.972;2022-09-13T03:39:39;98512.50;;;19.61;47.62
35655;BME280;21773;50.010;19.972;2022-09-13T03:42:48;98516.03;;;19.61;47.61
35655;BME280;21773;50.010;19.972;2022-09-13T03:45:57;98513.09;;;19.58;47.30
35655;BME280;21773;50.010;19.972;2022-09-13T03:49:04;98521.50;;;19.61;47.37
35655;BME280;21773;50.010;19.972;2022-09-13T03:52:08;98516.31;;;19.60;47.21
35655;BME280;21773;50.010;19.972;2022-09-13T03:55:16;98505.09;;;19.61;47.13
35655;BME280;21773;50.010;19.972;2022-09-13T03:58:21;98487.78;;;19.42;47.01
35655;BME280;21773;50.010;19.972;2022-09-13T04:01:25;98511.69;;;19.60;46.84
35655;BME280;21773;50.010;19.972;2022-09-13T04:04:29;98511.16;;;19.58;46.75
35655;BME280;21773;50.010;19.972;2022-09-13T04:07:32;98524.53;;;19.60;46.61
35655;BME280;21773;50.010;19.972;2022-09-13T04:10:37;98512.53;;;19.56;46.54
35655;BME280;21773;50.010;19.972;2022-09-13T04:13:41;98510.63;;;19.56;46.52
35655;BME280;21773;50.010;19.972;2022-09-13T04:16:44;98508.72;;;19.57;46.65
35655;BME280;21773;50.010;19.972;2022-09-13T04:19:48;98511.72;;;19.55;46.66
35655;BME280;21773;50.010;19.972;2022-09-13T04:22:51;98483.13;;;19.42;46.62
35655;BME280;21773;50.010;19.972;2022-09-13T04:26:00;98506.56;;;19.54;46.48
35655;BME280;21773;50.010;19.972;2022-09-13T04:29:03;98507.38;;;19.54;46.44
35655;BME280;21773;50.010;19.972;2022-09-13T04:32:06;98507.38;;;19.54;46.55
35655;BME280;21773;50.010;19.972;2022-09-13T04:35:10;98500.00;;;19.55;46.49
35655;BME280;21773;50.010;19.972;2022-09-13T04:38:14;98477.66;;;19.42;46.37
35655;BME280;21773;50.010;19.972;2022-09-13T04:41:19;98488.97;;;19.60;46.61
35655;BME280;21773;50.010;19.972;2022-09-13T04:44:23;98496.63;;;19.63;46.42
35655;BME280;21773;50.010;19.972;2022-09-13T04:47:26;98498.47;;;19.67;46.56
35655;BME280;21773;50.010;19.972;2022-09-13T04:50:29;98491.59;;;19.70;46.43
35655;BME280;21773;50.010;19.972;2022-09-13T04:53:33;98499.75;;;19.75;46.35
35655;BME280;21773;50.010;19.972;2022-09-13T04:56:38;98503.25;;;19.80;46.41
35655;BME280;21773;50.010;19.972;2022-09-13T04:59:42;98498.03;;;19.84;46.37
35655;BME280;21773;50.010;19.972;2022-09-13T05:02:45;98495.53;;;19.87;46.17
35655;BME280;21773;50.010;19.972;2022-09-13T05:05:48;98502.31;;;19.90;45.76
35655;BME280;21773;50.010;19.972;2022-09-13T05:08:53;98489.69;;;19.94;46.13
35655;BME280;21773;50.010;19.972;2022-09-13T05:11:58;98494.81;;;20.01;45.78
35655;BME280;21773;50.010;19.972;2022-09-13T05:15:01;98496.38;;;20.07;45.85
35655;BME280;21773;50.010;19.972;2022-09-13T05:18:05;98495.72;;;20.15;45.92
35655;BME280;21773;50.010;19.972;2022-09-13T05:21:09;98490.41;;;20.23;45.98
35655;BME280;21773;50.010;19.972;2022-09-13T05:24:12;98495.03;;;20.28;45.91
35655;BME280;21773;50.010;19.972;2022-09-13T05:27:17;98501.25;;;20.33;45.68
35655;BME280;21773;50.010;19.972;2022-09-13T05:30:20;98504.66;;;20.44;46.03
35655;BME280;21773;50.010;19.972;2022-09-13T05:33:23;98507.81;;;20.56;45.76
35655;BME280;21773;50.010;19.972;2022-09-13T05:36:27;98506.84;;;20.66;45.11
35655;BME280;21773;50.010;19.972;2022-09-13T05:39:30;98509.72;;;20.74;44.95
35655;BME280;21773;50.010;19.972;2022-09-13T05:42:55;98507.94;;;20.84;44.63
35655;BME280;21773;50.010;19.972;2022-09-13T05:46:03;98505.03;;;20.94;44.78
35655;BME280;21773;50.010;19.972;2022-09-13T05:49:06;98513.09;;;21.04;44.57
35655;BME280;21773;50.010;19.972;2022-09-13T05:52:10;98512.16;;;21.13;44.10
35655;BME280;21773;50.010;19.972;2022-09-13T05:55:13;98515.25;;;21.26;43.76
35655;BME280;21773;50.010;19.972;2022-09-13T05:58:18;98521.88;;;21.38;43.89
35655;BME280;21773;50.010;19.972;2022-09-13T06:01:23;98524.16;;;21.50;43.69
35655;BME280;21773;50.010;19.972;2022-09-13T06:04:27;98514.09;;;21.59;43.06
35655;BME280;21773;50.010;19.972;2022-09-13T06:07:31;98522.97;;;21.70;43.07
35655;BME280;21773;50.010;19.972;2022-09-13T06:10:34;98523.56;;;21.80;42.71
35655;BME280;21773;50.010;19.972;2022-09-13T06:13:40;98518.41;;;21.92;42.80
35655;BME280;21773;50.010;19.972;2022-09-13T06:16:44;98523.09;;;22.06;42.58
35655;BME280;21773;50.010;19.972;2022-09-13T06:19:47;98525.00;;;22.19;42.46
35655;BME280;21773;50.010;19.972;2022-09-13T06:22:50;98520.34;;;22.33;42.45
35655;BME280;21773;50.010;19.972;2022-09-13T06:26:01;98523.06;;;22.46;42.34
35655;BME280;21773;50.010;19.972;2022-09-13T06:29:10;98522.75;;;22.62;42.22
35655;BME280;21773;50.010;19.972;2022-09-13T06:32:13;98529.84;;;22.76;42.16
35655;BME280;21773;50.010;19.972;2022-09-13T06:35:16;98520.22;;;22.87;41.62
35655;BME280;21773;50.010;19.972;2022-09-13T06:38:20;98529.06;;;22.98;41.64
35655;BME280;21773;50.010;19.972;2022-09-13T06:41:24;98533.72;;;23.11;41.71
35655;BME280;21773;50.010;19.972;2022-09-13T06:44:29;98527.81;;;23.26;41.09
35655;BME280;21773;50.010;19.972;2022-09-13T06:47:32;98516.94;;;23.44;41.16
35655;BME280;21773;50.010;19.972;2022-09-13T06:50:36;98523.50;;;23.56;40.47
35655;BME280;21773;50.010;19.972;2022-09-13T06:53:41;98507.19;;;23.60;40.54
35655;BME280;21773;50.010;19.972;2022-09-13T06:56:44;98523.63;;;23.82;39.68
35655;BME280;21773;50.010;19.972;2022-09-13T06:59:49;98522.56;;;24.00;40.03
35655;BME280;21773;50.010;19.972;2022-09-13T07:02:53;98529.00;;;24.18;40.27
35655;BME280;21773;50.010;19.972;2022-09-13T07:05:56;98538.13;;;24.36;39.49
35655;BME280;21773;50.010;19.972;2022-09-13T07:09:02;98519.00;;;24.39;38.95
35655;BME280;21773;50.010;19.972;2022-09-13T07:12:06;98539.97;;;24.66;38.96
35655;BME280;21773;50.010;19.972;2022-09-13T07:15:12;98533.19;;;24.81;39.01
35655;BME280;21773;50.010;19.972;2022-09-13T07:18:15;98539.88;;;24.97;38.62
35655;BME280;21773;50.010;19.972;2022-09-13T07:21:18;98530.78;;;25.14;38.23
35655;BME280;21773;50.010;19.972;2022-09-13T07:24:23;98531.38;;;25.36;37.93
35655;BME280;21773;50.010;19.972;2022-09-13T07:27:27;98523.91;;;25.54;37.94
35655;BME280;21773;50.010;19.972;2022-09-13T07:30:33;98529.75;;;25.70;38.17
35655;BME280;21773;50.010;19.972;2022-09-13T07:33:37;98531.31;;;25.88;37.18
35655;BME280;21773;50.010;19.972;2022-09-13T07:36:41;98531.22;;;26.05;36.93
35655;BME280;21773;50.010;19.972;2022-09-13T07:39:45;98521.56;;;26.28;36.32
35655;BME280;21773;50.010;19.972;2022-09-13T07:42:50;98505.88;;;26.41;35.98
35655;BME280;21773;50.010;19.972;2022-09-13T07:46:00;98522.44;;;26.70;35.19
35655;BME280;21773;50.010;19.972;2022-09-13T07:49:04;98537.63;;;26.85;35.41
35655;BME280;21773;50.010;19.972;2022-09-13T07:52:07;98527.41;;;27.06;35.05
35655;BME280;21773;50.010;19.972;2022-09-13T07:55:11;98523.59;;;27.32;34.76
35655;BME280;21773;50.010;19.972;2022-09-13T07:58:14;98527.84;;;27.50;34.01
35655;BME280;21773;50.010;19.972;2022-09-13T08:01:21;98533.66;;;27.69;33.74
35655;BME280;21773;50.010;19.972;2022-09-13T08:04:25;98529.19;;;27.89;33.70
35655;BME280;21773;50.010;19.972;2022-09-13T08:07:28;98527.38;;;28.05;33.23
35655;BME280;21773;50.010;19.972;2022-09-13T08:10:32;98520.59;;;28.15;32.84
35655;BME280;21773;50.010;19.972;2022-09-13T08:13:35;98520.09;;;28.25;32.84
35655;BME280;21773;50.010;19.972;2022-09-13T08:16:41;98523.38;;;28.39;32.72
35655;BME280;21773;50.010;19.972;2022-09-13T08:19:44;98509.56;;;28.55;31.98
35655;BME280;21773;50.010;19.972;2022-09-13T08:22:47;98508.91;;;28.58;31.81
35655;BME280;21773;50.010;19.972;2022-09-13T08:25:51;98505.97;;;28.66;31.66
35655;BME280;21773;50.010;19.972;2022-09-13T08:28:55;98507.69;;;28.71;31.45
35655;BME280;21773;50.010;19.972;2022-09-13T08:32:00;98494.53;;;28.80;31.03
35655;BME280;21773;50.010;19.972;2022-09-13T08:35:04;98490.03;;;28.88;31.57
35655;BME280;21773;50.010;19.972;2022-09-13T08:38:07;98492.88;;;29.19;31.59
35655;BME280;21773;50.010;19.972;2022-09-13T08:41:27;98504.28;;;29.42;29.90
35655;BME280;21773;50.010;19.972;2022-09-13T08:44:40;98490.59;;;29.64;30.15
35655;BME280;21773;50.010;19.972;2022-09-13T08:47:51;98495.09;;;29.85;29.50
35655;BME280;21773;50.010;19.972;2022-09-13T08:50:57;98479.63;;;29.99;29.22
35655;BME280;21773;50.010;19.972;2022-09-13T08:54:03;98496.09;;;30.24;28.84
35655;BME280;21773;50.010;19.972;2022-09-13T08:57:12;98485.47;;;30.45;28.65
35655;BME280;21773;50.010;19.972;2022-09-13T09:00:20;98487.59;;;30.67;28.08
35655;BME280;21773;50.010;19.972;2022-09-13T09:03:30;98484.78;;;30.83;27.97
35655;BME280;21773;50.010;19.972;2022-09-13T09:06:39;98485.50;;;30.99;27.19
35655;BME280;21773;50.010;19.972;2022-09-13T09:09:48;98488.41;;;31.22;27.90
35655;BME280;21773;50.010;19.972;2022-09-13T09:12:56;98483.66;;;31.45;26.20
35655;BME280;21773;50.010;19.972;2022-09-13T09:16:06;98480.56;;;31.69;26.36
35655;BME280;21773;50.010;19.972;2022-09-13T09:19:20;98477.03;;;31.95;26.10
35655;BME280;21773;50.010;19.972;2022-09-13T09:22:28;98481.19;;;32.05;26.14
35655;BME280;21773;50.010;19.972;2022-09-13T09:25:35;98477.22;;;32.06;25.18
35655;BME280;21773;50.010;19.972;2022-09-13T09:28:38;98470.16;;;32.12;24.90
35655;BME280;21773;50.010;19.972;2022-09-13T09:31:47;98463.91;;;32.18;25.04
35655;BME280;21773;50.010;19.972;2022-09-13T09:35:08;98466.19;;;32.13;24.76
35655;BME280;21773;50.010;19.972;2022-09-13T09:38:37;98460.72;;;31.97;25.30
35655;BME280;21773;50.010;19.972;2022-09-13T09:41:43;98450.50;;;31.82;25.40
35655;BME280;21773;50.010;19.972;2022-09-13T09:44:50;98453.50;;;31.70;25.85
35655;BME280;21773;50.010;19.972;2022-09-13T09:47:55;98449.78;;;31.62;25.94
35655;BME280;21773;50.010;19.972;2022-09-13T09:51:04;98452.25;;;31.67;26.08
35655;BME280;21773;50.010;19.972;2022-09-13T09:54:11;98454.81;;;31.76;26.12
35655;BME280;21773;50.010;19.972;2022-09-13T09:57:15;98447.38;;;31.83;25.65
35655;BME280;21773;50.010;19.972;2022-09-13T10:00:23;98446.69;;;31.90;25.70
35655;BME280;21773;50.010;19.972;2022-09-13T10:03:28;98444.94;;;32.05;25.64
35655;BME280;21773;50.010;19.972;2022-09-13T10:06:36;98445.88;;;32.12;25.61
35655;BME280;21773;50.010;19.972;2022-09-13T10:09:57;98440.41;;;32.19;25.42
35655;BME280;21773;50.010;19.972;2022-09-13T10:13:11;98423.88;;;32.34;25.47
35655;BME280;21773;50.010;19.972;2022-09-13T10:16:24;98421.38;;;32.55;25.53
35655;BME280;21773;50.010;19.972;2022-09-13T10:19:30;98421.19;;;32.67;24.72
35655;BME280;21773;50.010;19.972;2022-09-13T10:22:35;98407.34;;;32.78;24.59
35655;BME280;21773;50.010;19.972;2022-09-13T10:25:39;98426.47;;;32.76;25.00
35655;BME280;21773;50.010;19.972;2022-09-13T10:28:55;98413.28;;;32.73;24.96
35655;BME280;21773;50.010;19.972;2022-09-13T10:32:07;98408.31;;;32.62;24.66
35655;BME280;21773;50.010;19.972;2022-09-13T10:35:15;98418.56;;;32.55;24.65
35655;BME280;21773;50.010;19.972;2022-09-13T10:38:26;98413.34;;;32.50;24.59
35655;BME280;21773;50.010;19.972;2022-09-13T10:41:33;98410.22;;;32.55;24.95
35655;BME280;21773;50.010;19.972;2022-09-13T10:44:42;98406.25;;;32.56;25.34
35655;BME280;21773;50.010;19.972;2022-09-13T10:47:48;98404.59;;;32.51;24.19
35655;BME280;21773;50.010;19.972;2022-09-13T10:51:02;98399.72;;;32.45;24.36
35655;BME280;21773;50.010;19.972;2022-09-13T10:54:14;98402.78;;;32.36;23.84
35655;BME280;21773;50.010;19.972;2022-09-13T10:57:31;98402.88;;;32.43;24.12
35655;BME280;21773;50.010;19.972;2022-09-13T11:00:41;98384.22;;;32.47;23.93
35655;BME280;21773;50.010;19.972;2022-09-13T11:04:32;98385.91;;;32.55;23.32
35655;BME280;21773;50.010;19.972;2022-09-13T11:07:54;98388.28;;;32.53;23.99
35655;BME280;21773;50.010;19.972;2022-09-13T11:11:11;98389.09;;;32.54;24.34
35655;BME280;21773;50.010;19.972;2022-09-13T11:14:25;98385.00;;;32.48;23.66
35655;BME280;21773;50.010;19.972;2022-09-13T11:17:50;98386.16;;;32.43;23.66
35655;BME280;21773;50.010;19.972;2022-09-13T11:21:08;98383.34;;;32.43;24.04
35655;BME280;21773;50.010;19.972;2022-09-13T11:24:26;98373.84;;;32.48;24.19
35655;BME280;21773;50.010;19.972;2022-09-13T11:27:45;98368.63;;;32.46;23.83
35655;BME280;21773;50.010;19.972;2022-09-13T11:31:05;98364.63;;;32.44;23.89
35655;BME280;21773;50.010;19.972;2022-09-13T11:34:19;98363.50;;;32.48;23.87
35655;BME280;21773;50.010;19.972;2022-09-13T11:37:42;98362.06;;;32.61;23.62
35655;BME280;21773;50.010;19.972;2022-09-13T11:40:55;98357.34;;;32.65;22.88
35655;BME280;21773;50.010;19.972;2022-09-13T11:44:22;98341.84;;;32.68;23.16
35655;BME280;21773;50.010;19.972;2022-09-13T11:47:40;98344.75;;;32.79;23.48
35655;BME280;21773;50.010;19.972;2022-09-13T11:50:56;98344.09;;;32.92;23.19
35655;BME280;21773;50.010;19.972;2022-09-13T11:54:12;98339.34;;;32.93;21.99
35655;BME280;21773;50.010;19.972;2022-09-13T11:57:24;98342.88;;;32.90;21.88
35655;BME280;21773;50.010;19.972;2022-09-13T12:00:32;98338.91;;;32.91;22.06
35655;BME280;21773;50.010;19.972;2022-09-13T12:03:42;98328.88;;;32.86;22.04
35655;BME280;21773;50.010;19.972;2022-09-13T12:06:53;98322.53;;;32.89;22.10
35655;BME280;21773;50.010;19.972;2022-09-13T12:10:04;98296.41;;;32.71;21.79
35655;BME280;21773;50.010;19.972;2022-09-13T12:13:13;98293.25;;;32.73;21.56
35655;BME280;21773;50.010;19.972;2022-09-13T12:16:21;98302.53;;;32.84;22.11
35655;BME280;21773;50.010;19.972;2022-09-13T12:19:29;98290.59;;;32.87;22.28
35655;BME280;21773;50.010;19.972;2022-09-13T12:22:35;98295.03;;;32.91;22.65
35655;BME280;21773;50.010;19.972;2022-09-13T12:25:45;98292.25;;;32.95;22.10
35655;BME280;21773;50.010;19.972;2022-09-13T12:28:55;98269.94;;;32.95;21.39
35655;BME280;21773;50.010;19.972;2022-09-13T12:32:04;98255.94;;;32.91;21.43
35655;BME280;21773;50.010;19.972;2022-09-13T12:35:16;98270.00;;;33.02;21.62
35655;BME280;21773;50.010;19.972;2022-09-13T12:39:09;98263.94;;;32.93;21.29
35655;BME280;21773;50.010;19.972;2022-09-13T12:42:56;98249.84;;;32.79;21.33
35655;BME280;21773;50.010;19.972;2022-09-13T12:46:20;98257.59;;;32.59;21.95
35655;BME280;21773;50.010;19.972;2022-09-13T12:49:40;98248.50;;;32.32;22.98
35655;BME280;21773;50.010;19.972;2022-09-13T12:52:56;98240.34;;;32.16;22.07
35655;BME280;21773;50.010;19.972;2022-09-13T12:56:21;98225.28;;;31.91;22.34
35655;BME280;21773;50.010;19.972;2022-09-13T12:59:48;98239.63;;;31.67;23.20
35655;BME280;21773;50.010;19.972;2022-09-13T13:03:03;98242.91;;;31.46;23.28
35655;BME280;21773;50.010;19.972;2022-09-13T13:06:24;98237.81;;;31.25;23.56
35655;BME280;21773;50.010;19.972;2022-09-13T13:09:35;98247.06;;;31.07;23.80
35655;BME280;21773;50.010;19.972;2022-09-13T13:12:42;98233.91;;;30.84;23.49
35655;BME280;21773;50.010;19.972;2022-09-13T13:15:58;98231.16;;;30.65;23.64
35655;BME280;21773;50.010;19.972;2022-09-13T13:19:05;98225.75;;;30.49;23.97
35655;BME280;21773;50.010;19.972;2022-09-13T13:22:49;98222.22;;;30.33;24.74
35655;BME280;21773;50.010;19.972;2022-09-13T13:26:07;98226.00;;;30.25;25.22
35655;BME280;21773;50.010;19.972;2022-09-13T13:29:16;98216.72;;;30.18;25.35
35655;BME280;21773;50.010;19.972;2022-09-13T13:32:20;98205.53;;;30.14;25.58
35655;BME280;21773;50.010;19.972;2022-09-13T13:35:28;98198.72;;;30.11;25.14
35655;BME280;21773;50.010;19.972;2022-09-13T13:38:52;98211.09;;;30.14;25.07
35655;BME280;21773;50.010;19.972;2022-09-13T13:41:58;98209.56;;;30.17;25.42
35655;BME280;21773;50.010;19.972;2022-09-13T13:45:17;98201.38;;;30.24;25.50
35655;BME280;21773;50.010;19.972;2022-09-13T13:48:34;98211.81;;;30.30;25.81
35655;BME280;21773;50.010;19.972;2022-09-13T13:51:37;98204.72;;;30.33;25.21
35655;BME280;21773;50.010;19.972;2022-09-13T13:54:59;98194.34;;;30.30;24.63
35655;BME280;21773;50.010;19.972;2022-09-13T13:58:11;98190.34;;;30.31;24.92
35655;BME280;21773;50.010;19.972;2022-09-13T14:01:21;98180.78;;;30.28;24.88
35655;BME280;21773;50.010;19.972;2022-09-13T14:04:52;98176.69;;;30.22;24.62
35655;BME280;21773;50.010;19.972;2022-09-13T14:11:44;98165.75;;;30.10;25.52
35655;BME280;21773;50.010;19.972;2022-09-13T14:15:11;98166.22;;;30.16;25.67
35655;BME280;21773;50.010;19.972;2022-09-13T14:18:39;98160.75;;;30.19;25.54
35655;BME280;21773;50.010;19.972;2022-09-13T14:22:14;98160.81;;;30.23;25.33
35655;BME280;21773;50.010;19.972;2022-09-13T14:25:22;98159.06;;;30.34;25.36
35655;BME280;21773;50.010;19.972;2022-09-13T14:28:31;98157.94;;;30.38;24.90
35655;BME280;21773;50.010;19.972;2022-09-13T14:31:35;98100.88;;;30.02;25.29
35655;BME280;21773;50.010;19.972;2022-09-13T14:34:50;98160.72;;;30.38;24.95
35655;BME280;21773;50.010;19.972;2022-09-13T14:37:55;98149.69;;;30.23;24.75
35655;BME280;21773;50.010;19.972;2022-09-13T14:41:02;98127.28;;;29.93;25.01
35655;BME280;21773;50.010;19.972;2022-09-13T14:44:16;98145.50;;;29.90;25.03
35655;BME280;21773;50.010;19.972;2022-09-13T14:47:32;98143.19;;;29.77;25.14
35655;BME280;21773;50.010;19.972;2022-09-13T14:50:40;98141.22;;;29.58;25.91
35655;BME280;21773;50.010;19.972;2022-09-13T14:53:51;98139.41;;;29.46;26.15
35655;BME280;21773;50.010;19.972;2022-09-13T14:56:57;98132.75;;;29.32;26.26
35655;BME280;21773;50.010;19.972;2022-09-13T15:00:05;98128.06;;;29.20;26.60
35655;BME280;21773;50.010;19.972;2022-09-13T15:03:13;98123.81;;;29.07;27.05
35655;BME280;21773;50.010;19.972;2022-09-13T15:06:25;98136.97;;;28.94;27.33
35655;BME280;21773;50.010;19.972;2022-09-13T15:09:29;98138.34;;;28.84;27.34
35655;BME280;21773;50.010;19.972;2022-09-13T15:12:34;98134.59;;;28.77;28.60
35655;BME280;21773;50.010;19.972;2022-09-13T15:15:40;98135.72;;;28.60;28.58
35655;BME280;21773;50.010;19.972;2022-09-13T15:18:44;98140.03;;;28.58;28.84
35655;BME280;21773;50.010;19.972;2022-09-13T15:21:47;98138.22;;;28.50;29.17
35655;BME280;21773;50.010;19.972;2022-09-13T15:24:52;98133.66;;;28.41;29.35
35655;BME280;21773;50.010;19.972;2022-09-13T15:27:56;98134.53;;;28.30;28.92
35655;BME280;21773;50.010;19.972;2022-09-13T15:31:02;98130.16;;;28.13;29.49
35655;BME280;21773;50.010;19.972;2022-09-13T15:34:21;98130.31;;;28.05;29.68
35655;BME280;21773;50.010;19.972;2022-09-13T15:37:32;98130.81;;;27.94;29.65
35655;BME280;21773;50.010;19.972;2022-09-13T15:40:41;98131.41;;;27.88;30.15
35655;BME280;21773;50.010;19.972;2022-09-13T15:43:47;98103.59;;;27.56;30.73
35655;BME280;21773;50.010;19.972;2022-09-13T15:46:53;98128.97;;;27.71;30.77
35655;BME280;21773;50.010;19.972;2022-09-13T15:49:57;98117.66;;;27.64;31.12
35655;BME280;21773;50.010;19.972;2022-09-13T15:53:00;98128.19;;;27.58;31.22
35655;BME280;21773;50.010;19.972;2022-09-13T15:56:05;98128.00;;;27.51;31.84
35655;BME280;21773;50.010;19.972;2022-09-13T15:59:12;98124.16;;;27.43;31.99
35655;BME280;21773;50.010;19.972;2022-09-13T16:02:19;98124.75;;;27.37;32.59
35655;BME280;21773;50.010;19.972;2022-09-13T16:05:23;98121.78;;;27.30;33.05
35655;BME280;21773;50.010;19.972;2022-09-13T16:08:26;98118.78;;;27.23;33.63
35655;BME280;21773;50.010;19.972;2022-09-13T16:11:29;98124.03;;;27.12;34.27
35655;BME280;21773;50.010;19.972;2022-09-13T16:14:33;98119.78;;;27.02;34.25
35655;BME280;21773;50.010;19.972;2022-09-13T16:17:38;98106.41;;;26.92;34.97
35655;BME280;21773;50.010;19.972;2022-09-13T16:20:42;98112.81;;;26.84;34.83
35655;BME280;21773;50.010;19.972;2022-09-13T16:23:45;98106.28;;;26.77;34.99
35655;BME280;21773;50.010;19.972;2022-09-13T16:26:49;98109.94;;;26.68;35.04
35655;BME280;21773;50.010;19.972;2022-09-13T16:29:53;98116.06;;;26.62;35.04
35655;BME280;21773;50.010;19.972;2022-09-13T16:32:58;98115.16;;;26.58;35.07
35655;BME280;21773;50.010;19.972;2022-09-13T16:36:01;98117.34;;;26.52;35.37